createdAt,value
2023-05-23T00:02:32.480Z,101141.84
2023-05-23T00:07:36.757Z,101135.31
2023-05-23T00:12:43.040Z,101123.03
2023-05-23T00:17:47.640Z,101148.50
2023-05-23T00:22:51.567Z,101100.69
2023-05-23T00:27:55.599Z,101117.28
2023-05-23T00:33:00.871Z,101148.94
2023-05-23T00:38:08.667Z,101151.78
2023-05-23T00:43:13.013Z,101163.84
2023-05-23T00:48:17.120Z,101166.66
2023-05-23T00:53:22.808Z,101166.28
2023-05-23T00:58:26.954Z,101159.47
2023-05-23T01:03:30.861Z,101169.09
2023-05-23T01:14:30.717Z,101178.13
2023-05-23T01:20:08.952Z,101170.22
2023-05-23T01:25:31.473Z,101177.53
2023-05-23T01:30:40.670Z,101167.50
2023-05-23T01:35:46.183Z,101173.19
2023-05-23T01:40:50.112Z,101165.53
2023-05-23T01:45:57.323Z,101129.75
2023-05-23T01:51:04.047Z,101184.69
2023-05-23T01:56:09.184Z,101178.94
2023-05-23T02:01:13.328Z,101187.25
2023-05-23T02:06:17.384Z,101187.00
2023-05-23T02:11:24.030Z,101193.81
2023-05-23T02:16:27.884Z,101202.84
2023-05-23T02:21:34.846Z,101181.75
2023-05-23T02:26:42.560Z,101195.97
2023-05-23T02:31:47.565Z,101191.44
2023-05-23T02:36:52.348Z,101193.94
2023-05-23T02:41:56.582Z,101186.13
2023-05-23T02:47:02.724Z,101189.47
2023-05-23T02:52:07.635Z,101190.81
2023-05-23T02:57:11.647Z,101197.47
2023-05-23T03:02:17.782Z,101151.72
2023-05-23T03:07:28.058Z,101191.78
2023-05-23T03:12:33.124Z,101201.31
2023-05-23T03:17:37.312Z,101197.81
2023-05-23T03:22:44.238Z,101187.47
2023-05-23T03:27:48.160Z,101190.56
2023-05-23T03:32:52.293Z,101184.53
2023-05-23T03:37:56.637Z,101186.47
2023-05-23T03:43:05.889Z,101183.50
2023-05-23T03:48:13.082Z,101181.72
2023-05-23T03:53:18.992Z,101178.72
2023-05-23T03:58:23.034Z,101171.09
2023-05-23T04:03:33.568Z,101177.31
2023-05-23T04:08:42.689Z,101180.59
2023-05-23T04:13:47.870Z,101181.75
2023-05-23T04:18:53.179Z,101175.84
2023-05-23T04:23:57.606Z,101165.91
2023-05-23T04:29:02.568Z,101135.50
2023-05-23T04:34:08.868Z,101188.63
2023-05-23T04:39:16.806Z,101174.78
2023-05-23T04:44:39.159Z,101171.56
2023-05-23T04:49:49.788Z,101179.47
2023-05-23T04:54:55.042Z,101162.56
2023-05-23T04:59:59.119Z,101168.72
2023-05-23T05:05:05.014Z,101159.72
2023-05-23T05:10:28.364Z,101145.41
2023-05-23T05:15:32.966Z,101143.09
2023-05-23T05:20:39.522Z,101150.25
2023-05-23T05:25:44.098Z,101132.50
2023-05-23T05:30:49.194Z,101134.72
2023-05-23T05:35:53.629Z,101132.84
2023-05-23T05:40:58.422Z,101123.28
2023-05-23T05:46:07.044Z,101117.16
2023-05-23T05:51:11.651Z,101117.69
2023-05-23T05:56:17.777Z,101087.84
2023-05-23T06:01:21.735Z,101079.94
2023-05-23T06:06:25.939Z,101109.16
2023-05-23T06:11:30.518Z,101090.44
2023-05-23T06:16:35.297Z,101101.22
2023-05-23T06:21:40.028Z,101092.97
2023-05-23T06:26:47.005Z,101077.19
2023-05-23T06:31:50.979Z,101079.50
2023-05-23T06:36:55.076Z,101078.63
2023-05-23T06:41:59.179Z,101047.44
2023-05-23T06:47:09.870Z,101053.72
2023-05-23T06:52:14.787Z,101056.47
2023-05-23T06:57:19.438Z,101050.94
2023-05-23T07:02:24.405Z,101050.91
2023-05-23T07:07:28.671Z,101039.25
2023-05-23T07:12:34.753Z,101039.66
2023-05-23T07:17:39.368Z,101042.13
2023-05-23T07:22:43.722Z,101008.63
2023-05-23T07:27:48.138Z,101004.94
2023-05-23T07:32:53.407Z,101031.00
2023-05-23T07:37:58.673Z,101025.31
2023-05-23T07:43:03.038Z,101019.72
2023-05-23T07:48:07.668Z,101018.69
2023-05-23T07:53:11.772Z,101006.59
2023-05-23T07:58:17.368Z,101022.44
2023-05-23T08:03:21.387Z,101019.31
2023-05-23T08:08:37.294Z,101008.44
2023-05-23T08:13:43.322Z,101008.22
2023-05-23T08:19:05.737Z,101002.00
2023-05-23T08:24:12.169Z,101002.91
2023-05-23T08:29:17.896Z,101003.13
2023-05-23T08:34:22.134Z,100997.50
2023-05-23T08:39:26.382Z,100994.19
2023-05-23T08:44:41.693Z,100988.38
2023-05-23T08:49:47.136Z,100983.13
2023-05-23T08:54:52.190Z,100988.38
2023-05-23T08:59:57.583Z,100993.25
2023-05-23T09:05:01.691Z,100979.53
2023-05-23T09:10:09.617Z,100970.94
2023-05-23T09:15:13.854Z,100963.06
2023-05-23T09:20:19.352Z,100975.28
2023-05-23T09:25:30.035Z,100968.34
2023-05-23T09:30:35.783Z,100967.41
2023-05-23T09:35:46.991Z,100967.06
2023-05-23T09:40:51.175Z,100958.16
2023-05-23T09:45:56.878Z,100949.97
2023-05-23T09:51:05.907Z,100942.44
2023-05-23T09:56:16.395Z,100950.63
2023-05-23T10:01:24.435Z,100939.81
2023-05-23T10:06:54.163Z,100952.31
2023-05-23T10:12:20.996Z,100947.25
2023-05-23T10:17:39.314Z,100941.91
2023-05-23T10:22:44.024Z,100935.81
2023-05-23T10:27:52.254Z,100944.50
2023-05-23T10:33:00.117Z,100947.06
2023-05-23T10:38:52.202Z,100932.78
2023-05-23T10:44:34.639Z,100930.53
2023-05-23T10:49:40.038Z,100926.56
2023-05-23T10:54:46.682Z,100916.25
2023-05-23T10:59:53.494Z,100914.31
2023-05-23T11:05:21.367Z,100901.81
2023-05-23T11:10:25.830Z,100911.19
2023-05-23T11:15:42.313Z,100911.53
2023-05-23T11:20:48.317Z,100907.94
2023-05-23T11:25:54.440Z,100902.50
2023-05-23T11:30:58.641Z,100903.50
2023-05-23T11:36:02.951Z,100906.03
2023-05-23T11:41:07.262Z,100901.06
2023-05-23T11:46:11.391Z,100909.72
2023-05-23T11:51:34.021Z,100899.13
2023-05-23T11:56:42.323Z,100905.97
2023-05-23T12:01:46.638Z,100866.38
2023-05-23T12:06:51.439Z,100892.06
2023-05-23T12:11:55.828Z,100896.78
2023-05-23T12:16:59.958Z,100897.47
2023-05-23T12:22:09.002Z,100901.31
2023-05-23T12:27:12.958Z,100882.81
2023-05-23T12:32:17.669Z,100888.78
2023-05-23T12:37:22.718Z,100889.03
2023-05-23T12:42:28.698Z,100870.84
2023-05-23T12:47:33.931Z,100896.00
2023-05-23T12:52:38.318Z,100874.47
2023-05-23T12:57:42.298Z,100876.19
2023-05-23T13:02:47.013Z,100889.16
2023-05-23T13:07:50.929Z,100879.88
2023-05-23T13:12:55.045Z,100829.59
2023-05-23T13:17:59.351Z,100870.41
2023-05-23T13:23:03.365Z,100881.03
2023-05-23T13:28:07.800Z,100858.00
2023-05-23T13:33:11.758Z,100874.28
2023-05-23T13:38:16.422Z,100881.75
2023-05-23T13:43:20.375Z,100888.88
2023-05-23T13:48:24.531Z,100887.88
2023-05-23T13:53:28.685Z,100855.84
2023-05-23T13:58:32.908Z,100878.50
2023-05-23T14:03:37.552Z,100870.88
2023-05-23T14:08:41.547Z,100872.63
2023-05-23T14:13:45.714Z,100871.72
2023-05-23T14:18:49.716Z,100868.34
2023-05-23T14:23:53.918Z,100863.97
2023-05-23T14:28:58.080Z,100867.34
2023-05-23T14:34:02.118Z,100869.19
2023-05-23T14:39:10.485Z,100876.03
2023-05-23T14:44:14.915Z,100875.50
2023-05-23T14:49:19.148Z,100874.03
2023-05-23T14:54:23.147Z,100887.41
2023-05-23T14:59:27.526Z,100883.22
2023-05-23T15:04:32.207Z,100884.44
2023-05-23T15:09:36.362Z,100896.75
2023-05-23T15:14:40.596Z,100885.47
2023-05-23T15:19:45.516Z,100880.53
2023-05-23T15:24:49.663Z,100878.59
2023-05-23T15:29:53.682Z,100877.38
2023-05-23T15:34:57.742Z,100882.66
2023-05-23T15:40:03.036Z,100880.41
2023-05-23T15:45:08.023Z,100878.75
2023-05-23T15:50:14.366Z,100871.38
2023-05-23T15:55:18.623Z,100873.97
2023-05-23T16:00:24.140Z,100867.69
2023-05-23T16:05:28.342Z,100873.78
2023-05-23T16:10:32.184Z,100872.50
2023-05-23T16:15:36.523Z,100863.53
2023-05-23T16:20:40.636Z,100858.59
2023-05-23T16:25:45.014Z,100844.09
2023-05-23T16:30:49.607Z,100851.03
2023-05-23T16:35:53.540Z,100852.66
2023-05-23T16:40:57.703Z,100844.78
2023-05-23T16:46:01.924Z,100788.16
2023-05-23T16:51:06.279Z,100848.25
2023-05-23T16:56:10.212Z,100843.44
2023-05-23T17:01:15.643Z,100847.56
2023-05-23T17:06:19.710Z,100840.19
2023-05-23T17:11:23.609Z,100835.44
2023-05-23T17:16:31.134Z,100831.91
2023-05-23T17:21:35.584Z,100827.72
2023-05-23T17:26:39.652Z,100840.41
2023-05-23T17:31:44.007Z,100842.41
2023-05-23T17:36:48.194Z,100839.06
2023-05-23T17:41:52.170Z,100836.81
2023-05-23T17:46:58.385Z,100839.53
2023-05-23T17:52:05.628Z,100824.72
2023-05-23T17:57:09.655Z,100815.41
2023-05-23T18:02:13.758Z,100819.56
2023-05-23T18:07:20.662Z,100807.38
2023-05-23T18:12:24.600Z,100805.88
2023-05-23T18:17:28.996Z,100796.06
2023-05-23T18:22:34.084Z,100799.50
2023-05-23T18:27:38.329Z,100783.84
2023-05-23T18:32:42.381Z,100783.13
2023-05-23T18:37:47.209Z,100787.16
2023-05-23T18:42:51.330Z,100779.97
2023-05-23T18:47:55.654Z,100774.06
2023-05-23T18:52:59.738Z,100776.91
2023-05-23T18:58:03.796Z,100766.53
2023-05-23T19:03:08.132Z,100767.09
2023-05-23T19:08:12.076Z,100746.53
2023-05-23T19:13:16.155Z,100758.25
2023-05-23T19:18:20.847Z,100766.53
2023-05-23T19:23:25.478Z,100761.94
2023-05-23T19:28:29.583Z,100759.31
2023-05-23T19:33:33.500Z,100752.31
2023-05-23T19:38:37.638Z,100752.31
2023-05-23T19:43:41.489Z,100745.63
2023-05-23T19:48:45.751Z,100735.19
2023-05-23T19:53:49.924Z,100677.47
2023-05-23T19:58:53.969Z,100725.22
2023-05-23T20:03:58.292Z,100727.31
2023-05-23T20:09:02.593Z,100719.47
2023-05-23T20:14:07.740Z,100707.13
2023-05-23T20:19:11.840Z,100694.59
2023-05-23T20:24:16.209Z,100706.38
2023-05-23T20:29:20.456Z,100709.25
2023-05-23T20:34:24.536Z,100717.38
2023-05-23T20:39:28.683Z,100722.25
2023-05-23T20:44:32.592Z,100723.72
2023-05-23T20:49:38.307Z,100742.91
2023-05-23T20:54:43.378Z,100736.13
2023-05-23T20:59:47.830Z,100724.59
2023-05-23T21:04:52.145Z,100726.44
2023-05-23T21:09:56.454Z,100735.78
2023-05-23T21:15:00.775Z,100741.72
2023-05-23T21:20:08.592Z,100733.91
2023-05-23T21:25:13.082Z,100733.94
2023-05-23T21:30:17.245Z,100747.81
2023-05-23T21:35:21.307Z,100714.97
2023-05-23T21:40:26.552Z,100752.75
2023-05-23T21:45:30.567Z,100754.81
2023-05-23T21:50:34.654Z,100761.31
2023-05-23T21:55:38.877Z,100748.00
2023-05-23T22:00:44.272Z,100764.19
2023-05-23T22:05:48.349Z,100766.69
2023-05-23T22:10:52.515Z,100773.47
2023-05-23T22:15:56.624Z,100769.28
2023-05-23T22:21:00.568Z,100769.09
2023-05-23T22:26:05.422Z,100774.59
2023-05-23T22:31:12.091Z,100766.78
2023-05-23T22:36:18.367Z,100783.91
2023-05-23T22:41:24.071Z,100796.56
2023-05-23T22:46:28.480Z,100793.69
2023-05-23T22:51:34.916Z,100795.38
2023-05-23T22:56:38.920Z,100793.16
2023-05-23T23:01:42.885Z,100796.88
2023-05-23T23:06:47.113Z,100797.41
2023-05-23T23:11:51.191Z,100801.59
2023-05-23T23:16:55.332Z,100805.66
2023-05-23T23:21:59.738Z,100815.69
2023-05-23T23:27:03.898Z,100828.81
2023-05-23T23:32:08.144Z,100825.34
2023-05-23T23:37:12.102Z,100829.88
2023-05-23T23:42:16.677Z,100844.84
2023-05-23T23:47:20.614Z,100786.44
2023-05-23T23:52:24.678Z,100847.53
2023-05-23T23:57:28.734Z,100856.88
